Time;durP1;ratioP1;P1;durP2;ratioP2;P2;SDS_P1;SDS_P2;PMS_P1;PMS_P2;Temp;Humidity;BMP_temperature;BMP_pressure;BME280_temperature;BME280_humidity;BME280_pressure;Samples;Min_cycle;Max_cycle;Signal;HPM_P1;HPM_P2
2021/03/17 00:00:45;;;;;;;1.60;1.40;;;5.60;98.20;;;;;;5017537;28;20465;-78
2021/03/17 00:03:12;;;;;;;1.60;1.30;;;5.60;98.20;;;;;;4989430;28;20913;-78
2021/03/17 00:05:39;;;;;;;1.60;1.30;;;5.60;98.20;;;;;;5020859;28;20491;-77
2021/03/17 00:08:06;;;;;;;1.60;1.30;;;5.50;98.20;;;;;;5011839;28;21155;-78
2021/03/17 00:10:36;;;;;;;1.60;1.37;;;5.50;98.20;;;;;;5016077;28;20486;-78
2021/03/17 00:13:05;;;;;;;1.57;1.30;;;5.50;98.20;;;;;;5015875;28;20484;-78
2021/03/17 00:15:33;;;;;;;1.60;1.30;;;5.50;98.20;;;;;;5027938;28;20492;-77
2021/03/17 00:17:59;;;;;;;1.60;1.50;;;5.50;98.20;;;;;;5013411;28;20522;-78
2021/03/17 00:20:27;;;;;;;1.60;1.30;;;5.40;98.20;;;;;;5025515;28;20498;-77
2021/03/17 00:23:09;;;;;;;1.60;1.40;;;5.40;98.20;;;;;;4994595;28;21062;-77
2021/03/17 00:25:37;;;;;;;1.60;1.40;;;5.40;98.20;;;;;;5019721;28;21017;-78
2021/03/17 00:28:05;;;;;;;1.60;1.30;;;5.40;98.20;;;;;;5015862;28;20558;-77
2021/03/17 00:30:33;;;;;;;1.60;1.30;;;5.40;98.20;;;;;;5022263;28;20591;-77
2021/03/17 00:33:00;;;;;;;1.60;1.40;;;5.40;98.20;;;;;;5019290;28;20546;-78
2021/03/17 00:35:26;;;;;;;1.60;1.40;;;5.40;98.20;;;;;;5024453;28;20511;-78
2021/03/17 00:37:52;;;;;;;1.60;1.30;;;5.40;98.20;;;;;;5021731;28;20475;-77
2021/03/17 00:40:19;;;;;;;1.60;1.30;;;5.40;98.20;;;;;;5019033;28;20519;-78
2021/03/17 00:42:45;;;;;;;1.60;1.40;;;5.40;98.20;;;;;;5011200;28;20479;-77
2021/03/17 00:45:14;;;;;;;1.60;1.40;;;5.40;98.20;;;;;;5022016;28;20475;-78
2021/03/17 00:47:40;;;;;;;1.60;1.30;;;5.40;98.20;;;;;;5013782;28;20494;-78
2021/03/17 00:50:09;;;;;;;1.60;1.40;;;5.40;98.20;;;;;;5020098;28;20468;-78
2021/03/17 00:52:36;;;;;;;1.60;1.30;;;5.40;98.20;;;;;;5016426;28;20483;-77
2021/03/17 00:55:03;;;;;;;1.60;1.40;;;5.40;98.20;;;;;;5018700;28;20491;-77
2021/03/17 00:57:29;;;;;;;1.60;1.30;;;5.40;98.20;;;;;;5014002;28;20479;-77
2021/03/17 00:59:55;;;;;;;1.60;1.40;;;5.40;98.20;;;;;;5014803;28;20507;-77
2021/03/17 01:02:23;;;;;;;1.60;1.30;;;5.40;98.20;;;;;;5017184;28;20487;-77
2021/03/17 01:04:49;;;;;;;1.60;1.30;;;5.40;98.20;;;;;;5018671;28;21028;-77
2021/03/17 01:07:16;;;;;;;1.60;1.40;;;5.40;98.20;;;;;;5022943;28;20549;-77
2021/03/17 01:09:42;;;;;;;1.60;1.30;;;5.40;98.20;;;;;;5016121;28;20471;-78
2021/03/17 01:12:10;;;;;;;1.60;1.40;;;5.40;98.20;;;;;;5016082;28;20851;-77
2021/03/17 01:14:37;;;;;;;1.60;1.40;;;5.40;98.20;;;;;;5016658;28;20518;-77
2021/03/17 01:17:04;;;;;;;1.60;1.50;;;5.40;98.20;;;;;;5007975;28;20480;-77
2021/03/17 01:19:31;;;;;;;1.60;1.40;;;5.40;98.20;;;;;;5016928;28;20491;-77
2021/03/17 01:21:57;;;;;;;1.60;1.30;;;5.40;98.20;;;;;;5015103;28;20483;-77
2021/03/17 01:24:24;;;;;;;1.60;1.30;;;5.40;98.20;;;;;;5020954;28;20468;-77
2021/03/17 01:26:51;;;;;;;1.60;1.50;;;5.40;98.20;;;;;;5011311;28;20483;-77
2021/03/17 01:29:17;;;;;;;1.60;1.40;;;5.40;98.20;;;;;;5020811;28;20470;-77
2021/03/17 01:31:44;;;;;;;1.60;1.40;;;5.40;98.20;;;;;;5007509;28;20915;-78
2021/03/17 01:34:10;;;;;;;1.60;1.40;;;5.40;98.20;;;;;;5013655;28;20834;-77
2021/03/17 01:36:37;;;;;;;1.60;1.40;;;5.40;98.20;;;;;;5013524;28;20582;-78
2021/03/17 01:39:04;;;;;;;1.60;1.30;;;5.40;98.20;;;;;;5020513;28;20772;-78
2021/03/17 01:41:30;;;;;;;1.60;1.40;;;5.40;98.20;;;;;;5013602;28;20486;-76
2021/03/17 01:43:57;;;;;;;1.60;1.30;;;5.40;98.20;;;;;;5022548;28;20479;-77
2021/03/17 01:46:23;;;;;;;1.60;1.30;;;5.40;98.20;;;;;;5018465;28;20498;-77
2021/03/17 01:48:49;;;;;;;1.60;1.30;;;5.40;98.20;;;;;;5024690;28;20479;-77
2021/03/17 01:51:16;;;;;;;1.60;1.30;;;5.40;98.20;;;;;;5011223;28;21061;-77
2021/03/17 01:53:43;;;;;;;1.60;1.30;;;5.40;98.20;;;;;;5025394;28;20498;-77
2021/03/17 01:56:09;;;;;;;1.60;1.47;;;5.40;98.20;;;;;;5004413;28;20484;-77
2021/03/17 01:58:36;;;;;;;1.60;1.40;;;5.40;98.20;;;;;;5028505;28;20460;-77
2021/03/17 02:01:04;;;;;;;1.60;1.33;;;5.40;98.20;;;;;;5013210;28;20474;-77
2021/03/17 02:03:30;;;;;;;1.60;1.30;;;5.30;98.20;;;;;;5027655;28;20867;-77
2021/03/17 02:05:57;;;;;;;1.60;1.30;;;5.30;98.20;;;;;;5010537;28;21009;-78
2021/03/17 02:08:27;;;;;;;1.60;1.40;;;5.30;98.20;;;;;;5020061;28;20862;-77
2021/03/17 02:10:54;;;;;;;1.60;1.30;;;5.30;98.20;;;;;;5012604;28;20495;-77
2021/03/17 02:13:55;;;;;;;1.60;1.30;;;5.30;98.20;;;;;;5020003;28;20965;-77
2021/03/17 02:16:26;;;;;;;1.60;1.30;;;5.30;98.20;;;;;;4977487;28;20486;-78
2021/03/17 02:19:08;;;;;;;1.60;1.33;;;5.30;98.20;;;;;;5014703;28;20461;-77
2021/03/17 02:22:12;;;;;;;1.60;1.30;;;5.30;98.20;;;;;;5008463;28;20484;-77
2021/03/17 02:24:44;;;;;;;1.60;1.40;;;5.30;98.20;;;;;;4981067;28;20463;-77
2021/03/17 02:27:39;;;;;;;1.60;1.30;;;5.30;98.20;;;;;;5010695;28;20471;-77
2021/03/17 02:30:47;;;;;;;1.60;1.33;;;5.30;98.20;;;;;;5021503;28;20739;-78
2021/03/17 02:33:38;;;;;;;1.60;1.47;;;5.30;98.20;;;;;;4984711;28;20822;-77
2021/03/17 02:36:10;;;;;;;1.60;1.30;;;5.30;98.20;;;;;;5008405;28;20484;-78
2021/03/17 02:38:40;;;;;;;1.60;1.30;;;5.30;98.20;;;;;;5024437;28;20510;-78
2021/03/17 02:41:08;;;;;;;1.60;1.40;;;5.30;98.20;;;;;;5007262;28;20934;-78
2021/03/17 02:43:39;;;;;;;1.60;1.33;;;5.30;98.20;;;;;;5029528;28;20991;-78
2021/03/17 02:46:11;;;;;;;1.60;1.30;;;5.30;98.20;;;;;;5011138;28;20496;-78
2021/03/17 02:48:42;;;;;;;1.60;1.47;;;5.20;98.20;;;;;;5014997;28;20574;-78
2021/03/17 02:51:18;;;;;;;1.60;1.47;;;5.20;98.20;;;;;;5009769;28;20562;-78
2021/03/17 02:53:47;;;;;;;1.60;1.30;;;5.20;98.20;;;;;;5022105;28;20475;-79
2021/03/17 02:56:14;;;;;;;1.60;1.30;;;5.20;98.20;;;;;;5016062;28;20487;-77
2021/03/17 02:58:44;;;;;;;1.60;1.30;;;5.20;98.20;;;;;;5021763;28;20467;-78
2021/03/17 03:01:14;;;;;;;1.60;1.23;;;5.20;98.20;;;;;;5014175;28;20793;-78
2021/03/17 03:03:42;;;;;;;1.60;1.30;;;5.30;98.20;;;;;;5021202;28;20460;-78
2021/03/17 03:06:10;;;;;;;1.60;1.30;;;5.30;98.20;;;;;;5019786;28;20513;-79
2021/03/17 03:08:39;;;;;;;1.60;1.30;;;5.30;98.20;;;;;;5027109;28;20487;-78
2021/03/17 03:11:07;;;;;;;1.60;1.30;;;5.30;98.20;;;;;;5017565;28;20865;-79
2021/03/17 03:13:37;;;;;;;1.60;1.30;;;5.30;98.20;;;;;;5030632;28;20464;-79
2021/03/17 03:16:06;;;;;;;1.60;1.37;;;5.30;98.20;;;;;;5018489;28;20492;-79
2021/03/17 03:18:34;;;;;;;1.60;1.40;;;5.30;98.20;;;;;;5034937;28;20487;-78
2021/03/17 03:21:02;;;;;;;1.60;1.50;;;5.20;98.20;;;;;;5012654;28;21036;-78
2021/03/17 03:23:29;;;;;;;1.60;1.30;;;5.30;98.20;;;;;;5023721;28;20526;-79
2021/03/17 03:25:58;;;;;;;1.63;1.53;;;5.20;98.20;;;;;;5018495;28;20603;-79
2021/03/17 03:28:25;;;;;;;1.60;1.47;;;5.20;98.20;;;;;;5030472;28;20486;-78
2021/03/17 03:30:54;;;;;;;1.60;1.40;;;5.20;98.20;;;;;;5015953;28;20479;-79
2021/03/17 03:33:21;;;;;;;1.60;1.37;;;5.20;98.20;;;;;;5014819;28;20531;-79
2021/03/17 03:35:48;;;;;;;1.60;1.30;;;5.20;98.20;;;;;;5019283;28;20491;-79
2021/03/17 03:38:15;;;;;;;1.60;1.50;;;5.20;98.20;;;;;;5015151;28;20470;-79
2021/03/17 03:40:42;;;;;;;1.60;1.40;;;5.20;98.20;;;;;;5030371;28;20900;-79
2021/03/17 03:43:10;;;;;;;1.60;1.30;;;5.10;98.20;;;;;;5026296;28;20539;-79
2021/03/17 03:45:38;;;;;;;1.60;1.40;;;5.10;98.20;;;;;;5023682;28;20487;-80
2021/03/17 03:48:05;;;;;;;1.60;1.30;;;5.10;98.20;;;;;;5019064;28;21031;-80
2021/03/17 03:50:34;;;;;;;1.60;1.37;;;5.10;98.20;;;;;;5023270;28;20466;-79
2021/03/17 03:53:09;;;;;;;1.60;1.30;;;5.10;98.20;;;;;;5021499;28;20576;-79
2021/03/17 03:55:46;;;;;;;1.60;1.50;;;5.10;98.20;;;;;;5018194;28;20863;-79
2021/03/17 03:58:18;;;;;;;1.70;1.43;;;5.10;98.20;;;;;;4993779;28;20827;-79
2021/03/17 04:00:46;;;;;;;1.60;1.30;;;5.10;98.20;;;;;;5028664;28;20470;-79
2021/03/17 04:03:14;;;;;;;1.60;1.40;;;5.10;98.20;;;;;;4996123;28;20475;-79
2021/03/17 04:05:44;;;;;;;1.60;1.30;;;5.00;98.20;;;;;;5030278;28;20494;-79
2021/03/17 04:08:17;;;;;;;1.60;1.40;;;5.00;98.20;;;;;;4998207;28;20480;-80
2021/03/17 04:10:51;;;;;;;1.60;1.40;;;5.00;98.20;;;;;;5026961;28;20468;-78
2021/03/17 04:13:21;;;;;;;1.60;1.40;;;5.00;98.20;;;;;;4995329;28;20474;-79
2021/03/17 04:15:48;;;;;;;1.60;1.30;;;5.00;98.20;;;;;;5015768;28;20488;-79
2021/03/17 04:18:16;;;;;;;1.60;1.30;;;5.00;98.20;;;;;;5033759;28;20889;-79
2021/03/17 04:20:46;;;;;;;1.60;1.40;;;5.00;98.20;;;;;;5029776;28;20531;-79
2021/03/17 04:23:13;;;;;;;1.60;1.40;;;5.00;98.20;;;;;;5001382;28;20471;-79
2021/03/17 04:25:46;;;;;;;1.70;1.50;;;5.00;98.20;;;;;;5024569;28;20489;-80
2021/03/17 04:28:16;;;;;;;1.60;1.37;;;5.00;98.20;;;;;;5000949;28;20488;-80
2021/03/17 04:30:43;;;;;;;1.60;1.40;;;5.00;98.20;;;;;;5027595;28;20496;-80
2021/03/17 04:33:11;;;;;;;1.60;1.40;;;5.00;98.20;;;;;;5021454;28;20528;-80
2021/03/17 04:35:38;;;;;;;1.60;1.33;;;5.00;98.20;;;;;;5019441;28;20492;-78
2021/03/17 04:38:05;;;;;;;1.60;1.40;;;4.90;98.20;;;;;;5007864;28;20494;-78
2021/03/17 04:40:32;;;;;;;1.60;1.30;;;4.90;98.20;;;;;;5016948;28;20460;-78
2021/03/17 04:42:59;;;;;;;1.60;1.30;;;4.90;98.20;;;;;;5022930;28;20475;-78
2021/03/17 04:45:26;;;;;;;1.60;1.30;;;4.90;98.20;;;;;;5019743;28;20483;-78
2021/03/17 04:47:54;;;;;;;1.60;1.40;;;4.80;98.20;;;;;;5012616;28;20577;-78
2021/03/17 04:50:25;;;;;;;1.60;1.30;;;4.80;98.20;;;;;;5022324;28;20523;-77
2021/03/17 04:52:52;;;;;;;1.67;1.50;;;4.80;98.20;;;;;;5016847;28;20531;-78
2021/03/17 04:55:19;;;;;;;5.20;3.33;;;4.80;98.20;;;;;;5012925;28;20998;-78
2021/03/17 04:57:47;;;;;;;1.70;1.50;;;4.80;98.20;;;;;;5017382;28;20475;-78
2021/03/17 05:00:18;;;;;;;1.60;1.40;;;4.70;98.20;;;;;;5019773;28;20467;-78
2021/03/17 05:02:49;;;;;;;1.60;1.30;;;4.70;98.20;;;;;;5015567;28;20549;-78
2021/03/17 05:05:16;;;;;;;1.60;1.40;;;4.70;98.20;;;;;;5020390;28;20491;-78
2021/03/17 05:07:45;;;;;;;1.60;1.30;;;4.70;98.20;;;;;;5018709;28;20483;-78
2021/03/17 05:10:14;;;;;;;1.60;1.40;;;4.70;98.20;;;;;;5025635;28;20838;-79
2021/03/17 05:12:41;;;;;;;1.60;1.40;;;4.70;98.20;;;;;;5018458;28;20475;-80
2021/03/17 05:15:09;;;;;;;1.60;1.40;;;4.70;98.20;;;;;;5023994;28;20591;-80
2021/03/17 05:17:38;;;;;;;1.60;1.30;;;4.70;98.20;;;;;;5019841;28;21012;-79
2021/03/17 05:20:08;;;;;;;1.60;1.30;;;4.70;98.20;;;;;;5026008;28;20471;-79
2021/03/17 05:22:35;;;;;;;1.60;1.40;;;4.70;98.20;;;;;;5019237;28;20483;-80
2021/03/17 05:25:05;;;;;;;1.70;1.47;;;4.70;98.20;;;;;;5023672;28;20514;-80
2021/03/17 05:27:35;;;;;;;1.60;1.30;;;4.70;98.20;;;;;;5017636;28;20478;-79
2021/03/17 05:30:04;;;;;;;1.63;1.40;;;4.70;98.20;;;;;;5019269;28;22725;-79
2021/03/17 05:32:33;;;;;;;1.60;1.40;;;4.70;98.20;;;;;;5021762;28;20479;-80
2021/03/17 05:35:03;;;;;;;1.60;1.30;;;4.70;98.20;;;;;;5023705;28;20490;-80
2021/03/17 05:37:29;;;;;;;1.60;1.30;;;4.70;98.20;;;;;;5020078;28;20844;-79
2021/03/17 05:39:56;;;;;;;1.60;1.30;;;4.70;98.20;;;;;;5015985;28;20737;-78
2021/03/17 05:42:23;;;;;;;1.60;1.30;;;4.70;98.20;;;;;;5014905;28;20969;-78
2021/03/17 05:44:50;;;;;;;1.60;1.30;;;4.70;98.20;;;;;;5016673;28;20499;-78
2021/03/17 05:47:18;;;;;;;1.70;1.40;;;4.70;98.20;;;;;;5016785;28;21186;-78
2021/03/17 05:49:49;;;;;;;1.70;1.60;;;4.70;98.20;;;;;;5019260;28;20509;-78
2021/03/17 05:52:18;;;;;;;1.70;1.50;;;4.70;98.20;;;;;;5011109;28;20490;-78
2021/03/17 05:54:45;;;;;;;1.60;1.30;;;4.70;98.20;;;;;;5024880;28;20487;-78
2021/03/17 05:57:12;;;;;;;1.60;1.50;;;4.70;98.20;;;;;;5009067;28;20486;-78
2021/03/17 05:59:40;;;;;;;1.60;1.47;;;4.70;98.20;;;;;;5015449;28;20459;-77
2021/03/17 06:02:08;;;;;;;1.60;1.40;;;4.70;98.20;;;;;;5018622;28;20482;-77
2021/03/17 06:04:38;;;;;;;1.60;1.30;;;4.70;98.20;;;;;;5017502;28;20473;-77
2021/03/17 06:07:10;;;;;;;1.60;1.30;;;4.70;98.20;;;;;;5012238;28;20491;-77
2021/03/17 06:09:40;;;;;;;1.60;1.30;;;4.70;98.20;;;;;;5025378;28;20476;-77
2021/03/17 06:12:09;;;;;;;1.60;1.43;;;4.70;98.20;;;;;;5052735;22;20548;-77
2021/03/17 06:14:37;;;;;;;1.60;1.50;;;4.70;98.20;;;;;;5051638;28;20945;-77
2021/03/17 06:17:11;;;;;;;1.60;1.30;;;4.70;98.20;;;;;;5044571;28;20496;-78
2021/03/17 06:19:42;;;;;;;1.60;1.30;;;4.70;98.20;;;;;;5067281;22;20501;-76
2021/03/17 06:22:08;;;;;;;1.60;1.40;;;4.70;98.20;;;;;;5028283;28;20479;-76
2021/03/17 06:24:36;;;;;;;1.60;1.33;;;4.80;98.20;;;;;;5036135;28;20470;-76
2021/03/17 06:27:04;;;;;;;1.60;1.43;;;4.80;98.20;;;;;;5029430;28;21080;-77
2021/03/17 06:29:31;;;;;;;1.60;1.40;;;4.80;98.20;;;;;;5038801;28;20824;-77
2021/03/17 06:31:57;;;;;;;1.60;1.30;;;4.80;98.20;;;;;;5023707;28;21330;-76
2021/03/17 06:34:23;;;;;;;1.60;1.30;;;4.80;98.20;;;;;;5034335;28;20474;-76
2021/03/17 06:36:51;;;;;;;1.67;1.40;;;4.80;98.20;;;;;;5021505;28;20518;-76
2021/03/17 06:39:17;;;;;;;1.60;1.40;;;4.90;98.20;;;;;;5029868;28;20481;-76
2021/03/17 06:41:46;;;;;;;1.60;1.30;;;4.90;98.20;;;;;;5021335;28;20480;-76
2021/03/17 06:44:19;;;;;;;1.60;1.30;;;4.90;98.20;;;;;;5026619;28;20498;-76
2021/03/17 06:47:06;;;;;;;1.60;1.50;;;4.90;98.20;;;;;;5024361;28;20531;-76
2021/03/17 06:49:36;;;;;;;1.60;1.40;;;4.90;98.20;;;;;;5030444;28;20552;-76
2021/03/17 06:52:26;;;;;;;1.60;1.30;;;4.90;98.20;;;;;;5026700;28;20471;-77
2021/03/17 06:55:07;;;;;;;1.60;1.40;;;5.00;98.20;;;;;;5025097;28;20502;-77
2021/03/17 06:57:34;;;;;;;1.60;1.37;;;5.00;98.20;;;;;;5031399;28;20473;-77
2021/03/17 07:00:26;;;;;;;1.60;1.40;;;5.00;98.20;;;;;;5031509;28;20487;-77
2021/03/17 07:02:54;;;;;;;1.60;1.37;;;5.00;98.20;;;;;;5030499;28;20486;-77
2021/03/17 07:05:21;;;;;;;1.60;1.30;;;5.00;98.20;;;;;;5020829;28;20467;-77
2021/03/17 07:07:49;;;;;;;1.60;1.30;;;5.00;98.20;;;;;;5023676;28;20488;-77
2021/03/17 07:10:27;;;;;;;1.60;1.40;;;5.00;98.20;;;;;;5030147;28;20853;-77
2021/03/17 07:12:55;;;;;;;1.60;1.40;;;5.00;98.20;;;;;;5025255;28;20482;-77
2021/03/17 07:15:21;;;;;;;1.60;1.30;;;5.10;98.20;;;;;;5026070;28;20982;-76
2021/03/17 07:17:48;;;;;;;1.60;1.40;;;5.10;98.20;;;;;;5025797;28;20478;-76
2021/03/17 07:20:35;;;;;;;1.60;1.30;;;5.10;98.20;;;;;;5021977;28;21002;-76
2021/03/17 07:23:19;;;;;;;1.60;1.30;;;5.10;98.20;;;;;;5024468;28;20979;-77
2021/03/17 07:26:04;;;;;;;1.60;1.30;;;5.10;98.20;;;;;;5017813;28;20860;-78
2021/03/17 07:28:53;;;;;;;1.63;1.53;;;5.10;98.20;;;;;;5040272;28;20499;-79
2021/03/17 07:31:21;;;;;;;1.60;1.40;;;5.20;98.20;;;;;;5016732;28;20485;-78
2021/03/17 07:33:49;;;;;;;1.60;1.47;;;5.20;98.20;;;;;;5032860;28;20472;-78
2021/03/17 07:36:32;;;;;;;1.60;1.30;;;5.20;98.20;;;;;;5016706;28;20480;-78
2021/03/17 07:38:59;;;;;;;1.60;1.40;;;5.30;98.20;;;;;;5030012;28;21009;-78
2021/03/17 07:41:26;;;;;;;1.60;1.40;;;5.30;98.20;;;;;;5022501;28;20792;-78
2021/03/17 07:43:54;;;;;;;1.60;1.30;;;5.30;98.20;;;;;;5032399;28;20517;-78
2021/03/17 07:46:22;;;;;;;1.60;1.30;;;5.30;98.20;;;;;;5021140;28;20481;-78
2021/03/17 07:48:50;;;;;;;1.60;1.40;;;5.30;98.20;;;;;;5033284;28;20912;-79
2021/03/17 07:51:18;;;;;;;1.60;1.30;;;5.30;98.20;;;;;;5020434;28;21008;-78
2021/03/17 07:53:48;;;;;;;1.60;1.43;;;5.40;98.20;;;;;;5029674;28;20467;-77
2021/03/17 07:56:16;;;;;;;1.60;1.30;;;5.40;98.20;;;;;;5024625;28;20548;-77
2021/03/17 07:58:43;;;;;;;1.60;1.40;;;5.50;98.20;;;;;;5037018;28;20863;-76
2021/03/17 08:01:10;;;;;;;1.60;1.40;;;5.50;98.20;;;;;;5016872;28;20494;-77
2021/03/17 08:03:37;;;;;;;1.70;1.40;;;5.60;98.20;;;;;;5035385;28;20467;-76
2021/03/17 08:06:06;;;;;;;1.60;1.40;;;5.60;98.20;;;;;;5014353;28;20467;-76
2021/03/17 08:08:33;;;;;;;1.60;1.30;;;5.70;98.20;;;;;;5033264;28;20495;-77
2021/03/17 08:11:01;;;;;;;1.60;1.20;;;5.80;98.20;;;;;;5016278;28;20562;-77
2021/03/17 08:13:28;;;;;;;1.60;1.20;;;5.90;98.20;;;;;;5038931;28;20468;-77
2021/03/17 08:15:55;;;;;;;1.60;1.30;;;5.90;98.20;;;;;;5007224;28;20533;-77
2021/03/17 08:18:44;;;;;;;1.60;1.20;;;5.90;98.20;;;;;;5029919;28;20476;-77
2021/03/17 08:21:13;;;;;;;1.60;1.20;;;6.00;98.20;;;;;;5013168;28;20549;-77
2021/03/17 08:23:41;;;;;;;1.60;1.30;;;5.90;98.20;;;;;;5021139;28;20604;-77
2021/03/17 08:26:09;;;;;;;1.60;1.40;;;5.90;98.20;;;;;;5004849;28;20468;-77
2021/03/17 08:28:50;;;;;;;1.57;1.23;;;5.80;98.20;;;;;;5024542;28;20487;-77
2021/03/17 08:31:55;;;;;;;1.60;1.40;;;5.80;98.20;;;;;;5015244;28;20486;-77
2021/03/17 08:34:33;;;;;;;1.60;1.30;;;5.80;98.20;;;;;;5022923;28;20528;-77
2021/03/17 08:37:01;;;;;;;1.60;1.40;;;5.90;98.20;;;;;;5018358;28;20486;-78
2021/03/17 08:39:48;;;;;;;1.60;1.40;;;6.10;98.20;;;;;;5035186;28;21094;-78
2021/03/17 08:42:27;;;;;;;1.60;1.20;;;6.20;98.20;;;;;;5027218;28;20478;-78
2021/03/17 08:44:54;;;;;;;1.60;1.30;;;6.40;98.20;;;;;;5019240;28;20468;-78
2021/03/17 08:47:22;;;;;;;1.60;1.50;;;6.50;98.20;;;;;;5029123;28;20493;-78
2021/03/17 08:49:51;;;;;;;1.87;1.67;;;6.60;98.20;;;;;;5028619;28;20490;-77
2021/03/17 08:52:20;;;;;;;1.60;1.20;;;6.70;98.20;;;;;;5020876;28;20521;-77
2021/03/17 08:55:20;;;;;;;1.60;1.23;;;6.90;98.20;;;;;;5022513;28;20471;-78
2021/03/17 08:57:55;;;;;;;1.60;1.30;;;7.00;98.20;;;;;;5025878;28;20478;-77
2021/03/17 09:00:59;;;;;;;1.60;1.30;;;7.00;98.20;;;;;;5020416;28;21001;-77
2021/03/17 09:03:36;;;;;;;1.60;1.30;;;7.00;98.20;;;;;;5008227;28;20568;-77
2021/03/17 09:06:11;;;;;;;1.60;1.40;;;6.90;98.20;;;;;;5012355;28;20859;-77
2021/03/17 09:09:02;;;;;;;1.60;1.30;;;6.80;98.20;;;;;;5033831;28;20495;-77
2021/03/17 09:11:59;;;;;;;1.60;1.20;;;6.70;98.20;;;;;;5013231;28;20863;-77
2021/03/17 09:14:32;;;;;;;1.57;1.27;;;6.60;98.20;;;;;;5027034;28;20961;-78
2021/03/17 09:17:30;;;;;;;1.57;1.20;;;6.60;98.20;;;;;;5010104;28;20493;-77
2021/03/17 09:20:22;;;;;;;1.60;1.30;;;6.50;98.20;;;;;;5024561;28;20483;-77
2021/03/17 09:23:00;;;;;;;1.57;1.20;;;6.40;98.20;;;;;;5026546;28;20534;-78
2021/03/17 09:25:30;;;;;;;1.60;1.30;;;6.70;98.20;;;;;;5021795;28;20469;-78
2021/03/17 09:28:03;;;;;;;1.60;1.23;;;6.90;98.20;;;;;;5024501;28;20997;-78
2021/03/17 09:30:36;;;;;;;1.60;1.20;;;7.30;98.20;;;;;;5024083;28;20633;-78
2021/03/17 09:33:06;;;;;;;1.60;1.20;;;7.60;98.20;;;;;;5019743;28;20479;-77
2021/03/17 09:35:33;;;;;;;1.60;1.30;;;7.80;98.20;;;;;;5023432;28;20470;-78
2021/03/17 09:38:01;;;;;;;1.60;1.20;;;7.80;98.20;;;;;;5023735;28;20898;-78
2021/03/17 09:40:33;;;;;;;1.60;1.20;;;7.70;98.20;;;;;;5021277;28;20492;-78
2021/03/17 09:43:00;;;;;;;1.60;1.13;;;7.60;98.20;;;;;;5024491;28;20486;-78
2021/03/17 09:45:26;;;;;;;1.60;1.20;;;7.40;98.20;;;;;;5024540;28;20470;-78
2021/03/17 09:47:56;;;;;;;1.60;1.20;;;7.30;98.20;;;;;;5024849;28;20508;-77
2021/03/17 09:50:24;;;;;;;1.60;1.30;;;7.10;98.20;;;;;;5024516;28;20982;-78
2021/03/17 09:52:51;;;;;;;1.60;1.30;;;7.00;98.20;;;;;;5028536;28;21016;-78
2021/03/17 09:55:33;;;;;;;1.60;1.27;;;7.00;98.20;;;;;;5014589;28;20498;-78
2021/03/17 09:58:02;;;;;;;1.60;1.20;;;7.10;98.20;;;;;;5018527;28;21091;-78
2021/03/17 10:00:29;;;;;;;1.60;1.20;;;7.10;98.20;;;;;;5027526;28;20483;-82
2021/03/17 10:03:00;;;;;;;1.60;1.40;;;7.20;98.20;;;;;;5039503;28;20868;-80
2021/03/17 10:05:26;;;;;;;1.60;1.30;;;7.20;98.20;;;;;;5033213;28;20467;-80
2021/03/17 10:07:53;;;;;;;1.60;1.30;;;7.20;98.20;;;;;;5038171;28;20505;-80
2021/03/17 10:10:20;;;;;;;1.60;1.30;;;7.10;98.20;;;;;;5034923;28;20735;-80
2021/03/17 10:12:48;;;;;;;1.60;1.20;;;7.10;98.20;;;;;;5040776;28;20486;-81
2021/03/17 10:15:17;;;;;;;1.60;1.30;;;7.00;98.20;;;;;;5028904;28;20474;-80
2021/03/17 10:17:44;;;;;;;1.60;1.20;;;6.90;98.20;;;;;;5035469;28;20616;-80
2021/03/17 10:20:13;;;;;;;1.60;1.20;;;6.80;98.20;;;;;;5036908;28;20495;-80
2021/03/17 10:22:40;;;;;;;1.60;1.20;;;6.80;98.20;;;;;;5038905;28;20486;-81
2021/03/17 10:25:09;;;;;;;1.60;1.30;;;6.70;98.20;;;;;;5037428;28;20462;-80
2021/03/17 10:27:37;;;;;;;1.60;1.20;;;6.80;98.20;;;;;;5022142;28;20529;-80
2021/03/17 10:30:08;;;;;;;1.60;1.30;;;6.80;98.20;;;;;;5032210;28;20545;-81
2021/03/17 10:32:37;;;;;;;1.53;1.30;;;6.70;98.20;;;;;;5037619;28;20569;-80
2021/03/17 10:35:06;;;;;;;1.57;1.20;;;6.80;98.20;;;;;;5034187;28;20593;-80
2021/03/17 10:37:33;;;;;;;1.57;1.27;;;6.90;98.20;;;;;;5036375;28;20474;-80
2021/03/17 10:40:08;;;;;;;1.60;1.20;;;6.90;98.20;;;;;;5025712;28;20510;-80
2021/03/17 10:42:41;;;;;;;1.57;1.17;;;7.00;98.20;;;;;;5033686;28;20502;-80
2021/03/17 10:45:11;;;;;;;1.60;1.30;;;7.00;98.20;;;;;;5031694;28;20938;-80
2021/03/17 10:47:39;;;;;;;1.60;1.30;;;6.90;97.70;;;;;;5036912;28;20482;-80
2021/03/17 10:50:09;;;;;;;1.53;1.20;;;6.90;98.20;;;;;;5032503;28;20892;-80
2021/03/17 10:52:38;;;;;;;1.60;1.30;;;6.90;98.10;;;;;;5036240;28;20816;-81
2021/03/17 10:55:16;;;;;;;1.60;1.30;;;6.80;97.00;;;;;;5027526;28;20467;-80
2021/03/17 10:57:45;;;;;;;1.60;1.20;;;6.70;97.60;;;;;;5033386;28;20704;-81
2021/03/17 11:00:21;;;;;;;1.57;1.30;;;6.60;97.90;;;;;;5032010;28;20481;-80
2021/03/17 11:02:47;;;;;;;1.60;1.40;;;6.60;98.00;;;;;;5039575;28;20486;-81
2021/03/17 11:05:27;;;;;;;1.53;1.30;;;6.40;97.30;;;;;;5031236;28;20473;-80
2021/03/17 11:08:08;;;;;;;1.60;1.20;;;6.30;97.70;;;;;;5031531;28;20486;-80
2021/03/17 11:10:51;;;;;;;1.60;1.30;;;6.20;98.20;;;;;;5026216;28;20491;-81
2021/03/17 11:13:40;;;;;;;1.53;1.20;;;6.20;98.20;;;;;;5020137;28;20471;-81
2021/03/17 11:16:28;;;;;;;1.60;1.30;;;6.30;98.20;;;;;;5015573;28;28812;-80
2021/03/17 11:18:56;;;;;;;1.50;1.20;;;6.40;98.20;;;;;;5031955;28;20464;-81
2021/03/17 11:21:25;;;;;;;1.53;1.20;;;6.50;98.20;;;;;;5022067;28;20482;-81
2021/03/17 11:23:53;;;;;;;1.60;1.20;;;6.80;97.00;;;;;;5040467;28;20459;-81
2021/03/17 11:26:23;;;;;;;1.60;1.30;;;7.00;96.90;;;;;;5020218;28;20474;-81
2021/03/17 11:28:51;;;;;;;1.57;1.20;;;7.20;96.40;;;;;;5032899;28;21093;-81
2021/03/17 11:31:30;;;;;;;1.60;1.20;;;7.60;95.60;;;;;;5023709;28;20493;-80
2021/03/17 11:33:57;;;;;;;1.60;1.20;;;7.90;94.40;;;;;;5040012;28;20471;-80
2021/03/17 11:36:24;;;;;;;1.60;1.20;;;8.00;92.90;;;;;;5029400;28;20477;-81
2021/03/17 11:38:51;;;;;;;1.60;1.30;;;8.00;93.10;;;;;;5042165;28;20502;-81
2021/03/17 11:41:18;;;;;;;1.53;1.10;;;8.10;93.80;;;;;;5027362;28;20497;-81
2021/03/17 11:43:45;;;;;;;1.60;1.20;;;8.10;93.30;;;;;;5041563;28;20474;-81
2021/03/17 11:46:11;;;;;;;1.57;1.13;;;8.10;92.60;;;;;;5027815;28;21002;-81
2021/03/17 11:48:39;;;;;;;4.83;1.93;;;8.20;93.60;;;;;;5033175;28;20703;-81
2021/03/17 11:51:07;;;;;;;1.60;1.20;;;8.10;92.10;;;;;;5026653;28;22130;-81
2021/03/17 11:53:35;;;;;;;1.57;1.10;;;8.20;93.20;;;;;;5043753;28;20887;-81
2021/03/17 11:56:02;;;;;;;1.60;1.30;;;8.30;92.50;;;;;;5015578;28;20771;-83
2021/03/17 11:58:29;;;;;;;1.53;1.10;;;8.40;89.90;;;;;;5043588;28;20930;-81
2021/03/17 12:00:55;;;;;;;1.53;1.10;;;8.50;90.10;;;;;;5010197;28;20538;-79
2021/03/17 12:03:22;;;;;;;1.57;1.10;;;8.70;89.80;;;;;;5044409;28;20468;-79
2021/03/17 12:05:50;;;;;;;1.60;1.20;;;8.70;88.40;;;;;;5014661;28;20482;-79
2021/03/17 12:08:17;;;;;;;1.57;1.10;;;8.60;87.40;;;;;;5032862;28;20823;-79
2021/03/17 12:10:45;;;;;;;1.50;1.10;;;8.50;87.40;;;;;;5025670;28;20491;-79
2021/03/17 12:13:11;;;;;;;1.60;1.20;;;8.30;88.00;;;;;;5017752;28;20548;-79
2021/03/17 12:15:37;;;;;;;1.57;1.20;;;8.00;89.40;;;;;;5028834;28;20614;-78
2021/03/17 12:18:05;;;;;;;1.60;1.30;;;7.80;91.20;;;;;;5013860;28;20488;-79
2021/03/17 12:20:32;;;;;;;1.60;1.30;;;7.60;92.00;;;;;;5022831;28;20558;-79
2021/03/17 12:23:00;;;;;;;1.60;1.20;;;7.60;92.40;;;;;;5028875;28;20536;-79
2021/03/17 12:25:28;;;;;;;1.57;1.20;;;7.60;93.20;;;;;;5021025;28;20499;-79
2021/03/17 12:27:54;;;;;;;1.57;1.10;;;7.70;92.40;;;;;;5025332;28;20576;-81
2021/03/17 12:30:22;;;;;;;1.53;1.10;;;7.90;90.80;;;;;;5019267;28;20839;-79
2021/03/17 12:32:51;;;;;;;1.53;1.10;;;8.20;88.50;;;;;;5027067;28;20483;-79
2021/03/17 12:35:18;;;;;;;1.57;1.10;;;8.60;89.70;;;;;;5022069;28;20524;-79
2021/03/17 12:37:46;;;;;;;1.50;1.10;;;9.10;88.00;;;;;;5023679;28;20857;-79
2021/03/17 12:40:15;;;;;;;1.57;1.10;;;9.50;87.50;;;;;;5023040;28;20483;-78
2021/03/17 12:42:42;;;;;;;1.57;1.20;;;9.70;86.60;;;;;;5031279;28;20486;-78
2021/03/17 12:45:10;;;;;;;1.57;1.17;;;9.80;84.70;;;;;;5026728;28;20463;-78
2021/03/17 12:47:37;;;;;;;1.53;1.10;;;9.80;84.70;;;;;;5024678;28;21002;-79
2021/03/17 12:50:05;;;;;;;1.60;1.10;;;9.80;85.30;;;;;;5014999;28;20510;-80
2021/03/17 12:52:31;;;;;;;1.57;1.10;;;9.70;84.90;;;;;;5021631;28;20496;-79
2021/03/17 12:54:58;;;;;;;1.50;1.10;;;9.70;85.60;;;;;;5029765;28;20494;-79
2021/03/17 12:57:25;;;;;;;1.57;1.07;;;9.50;85.70;;;;;;5013503;28;20479;-79
2021/03/17 12:59:54;;;;;;;1.60;1.10;;;9.20;85.40;;;;;;5023896;28;20540;-79
2021/03/17 13:02:21;;;;;;;1.57;1.20;;;8.90;86.80;;;;;;5027118;28;20486;-79
2021/03/17 13:04:47;;;;;;;1.60;1.10;;;8.80;88.40;;;;;;5022476;28;20466;-79
2021/03/17 13:07:13;;;;;;;1.60;1.40;;;8.70;88.40;;;;;;5016980;28;20490;-80
2021/03/17 13:09:40;;;;;;;1.60;1.30;;;8.70;88.20;;;;;;5025149;28;20526;-79
2021/03/17 13:12:06;;;;;;;1.60;1.20;;;8.60;87.60;;;;;;5016617;28;20490;-79
2021/03/17 13:14:34;;;;;;;1.60;1.20;;;8.60;87.60;;;;;;5023585;28;20463;-79